Time;durP1;ratioP1;P1;durP2;ratioP2;P2;SDS_P1;SDS_P2;PMS_P1;PMS_P2;Temp;Humidity;BMP_temperature;BMP_pressure;BME280_temperature;BME280_humidity;BME280_pressure;Samples;Min_cycle;Max_cycle;Signal;HPM_P1;HPM_P2
2022/10/13 00:01:26;;;;;;;75.60;60.38;;;16.90;99.90;;;;;;5032506;28;20033;-53
2022/10/13 00:03:53;;;;;;;78.03;65.03;;;16.80;99.90;;;;;;5035299;28;20037;-55
2022/10/13 00:06:22;;;;;;;129.13;86.30;;;16.90;99.90;;;;;;5010566;28;20520;-54
2022/10/13 00:08:48;;;;;;;146.23;98.72;;;16.70;99.90;;;;;;5036703;28;20059;-55
2022/10/13 00:11:18;;;;;;;155.93;104.80;;;16.80;99.90;;;;;;5033631;28;20517;-52
2022/10/13 00:13:45;;;;;;;106.97;79.18;;;16.80;99.90;;;;;;5016546;28;20057;-56
2022/10/13 00:16:13;;;;;;;99.18;73.78;;;16.80;99.90;;;;;;5016320;28;20040;-55
2022/10/13 00:18:39;;;;;;;91.90;71.13;;;16.80;99.90;;;;;;5020254;28;20045;-56
2022/10/13 00:21:10;;;;;;;101.28;75.05;;;16.80;99.90;;;;;;5026983;28;20038;-51
2022/10/13 00:23:37;;;;;;;98.03;76.28;;;16.80;99.90;;;;;;5016021;28;20370;-52
2022/10/13 00:26:06;;;;;;;112.78;77.97;;;16.70;99.90;;;;;;5015875;28;20034;-57
2022/10/13 00:28:32;;;;;;;124.38;86.88;;;16.70;99.90;;;;;;5015883;28;20037;-56
2022/10/13 00:30:58;;;;;;;108.22;77.88;;;16.70;99.90;;;;;;5014365;28;20092;-55
2022/10/13 00:33:23;;;;;;;96.03;74.95;;;16.70;99.90;;;;;;5017740;28;20453;-54
2022/10/13 00:35:49;;;;;;;83.60;66.28;;;16.60;99.90;;;;;;5009144;28;20038;-52
2022/10/13 00:38:17;;;;;;;92.32;67.82;;;16.60;99.90;;;;;;5016290;28;20452;-52
2022/10/13 00:40:47;;;;;;;89.10;66.32;;;16.50;99.90;;;;;;5013638;28;20101;-54
2022/10/13 00:43:43;;;;;;;94.22;67.60;;;16.50;99.90;;;;;;5014927;28;20501;-54
2022/10/13 00:46:08;;;;;;;85.85;65.13;;;16.50;99.90;;;;;;5020481;28;20041;-57
2022/10/13 00:48:34;;;;;;;86.88;62.70;;;16.50;99.90;;;;;;5022528;28;20389;-57
2022/10/13 00:51:00;;;;;;;85.63;66.57;;;16.60;99.90;;;;;;5014713;28;20078;-54
2022/10/13 00:53:30;;;;;;;89.43;68.72;;;16.60;99.90;;;;;;5018869;28;20041;-54
2022/10/13 00:55:56;;;;;;;89.63;68.53;;;16.70;99.90;;;;;;5016679;28;20436;-55
2022/10/13 00:58:24;;;;;;;99.03;68.10;;;16.60;99.90;;;;;;5015192;28;20030;-54
2022/10/13 01:00:52;;;;;;;85.22;65.43;;;16.60;99.90;;;;;;5015403;28;20425;-52
2022/10/13 01:03:19;;;;;;;79.75;64.22;;;16.60;99.90;;;;;;5015913;28;20112;-53
2022/10/13 01:05:47;;;;;;;81.47;62.10;;;16.60;99.90;;;;;;5013736;28;20057;-56
2022/10/13 01:08:14;;;;;;;80.55;62.80;;;16.50;99.90;;;;;;5014611;28;20049;-50
2022/10/13 01:11:06;;;;;;;76.68;60.90;;;16.50;99.90;;;;;;5020869;28;20030;-51
2022/10/13 01:13:38;;;;;;;79.45;63.78;;;16.50;99.90;;;;;;5014970;28;20393;-52
2022/10/13 01:16:19;;;;;;;79.55;63.72;;;16.50;99.90;;;;;;5009287;28;20034;-51
2022/10/13 01:18:58;;;;;;;81.25;64.85;;;16.60;99.90;;;;;;5014506;28;20067;-50
2022/10/13 01:21:27;;;;;;;81.78;64.03;;;16.50;99.90;;;;;;5010450;28;20039;-55
2022/10/13 01:24:29;;;;;;;89.38;64.35;;;16.70;99.90;;;;;;5018256;28;20053;-55
2022/10/13 01:27:13;;;;;;;85.85;63.00;;;16.70;99.90;;;;;;5015318;28;20034;-50
2022/10/13 01:29:42;;;;;;;81.03;62.45;;;16.70;99.90;;;;;;5014979;28;20406;-54
2022/10/13 01:32:30;;;;;;;83.95;61.47;;;16.60;99.90;;;;;;5019143;28;20405;-56
2022/10/13 01:35:11;;;;;;;84.47;64.18;;;16.60;99.90;;;;;;5020206;28;20077;-55
2022/10/13 01:38:17;;;;;;;81.30;62.45;;;16.60;99.90;;;;;;5031809;28;20044;-56
2022/10/13 01:40:52;;;;;;;86.10;63.03;;;16.70;99.90;;;;;;5001414;28;20041;-54
2022/10/13 01:43:24;;;;;;;76.30;63.13;;;16.70;99.90;;;;;;5030086;28;20054;-51
2022/10/13 01:46:12;;;;;;;83.80;64.53;;;16.70;99.90;;;;;;4988909;28;20045;-53
2022/10/13 01:48:40;;;;;;;78.40;63.00;;;16.70;99.90;;;;;;4967334;28;20495;-55
2022/10/13 01:51:11;;;;;;;78.85;64.05;;;16.70;99.90;;;;;;4967108;28;20038;-56
2022/10/13 01:53:37;;;;;;;78.97;60.20;;;16.70;99.90;;;;;;4967085;28;20039;-53
2022/10/13 01:56:03;;;;;;;74.55;60.88;;;16.70;99.90;;;;;;4969482;28;20039;-54
2022/10/13 01:58:32;;;;;;;73.20;59.22;;;16.70;99.90;;;;;;4923724;28;20042;-53
2022/10/13 02:01:01;;;;;;;76.97;60.38;;;16.70;99.90;;;;;;4966189;28;20070;-56
2022/10/13 02:03:56;;;;;;;78.47;60.53;;;16.70;99.90;;;;;;4970020;28;20046;-53
2022/10/13 02:06:31;;;;;;;70.88;58.63;;;16.70;99.90;;;;;;4869921;29;20605;-52
2022/10/13 02:09:22;;;;;;;80.13;61.33;;;16.70;99.90;;;;;;4855104;29;20085;-52
2022/10/13 02:12:12;;;;;;;79.40;63.45;;;16.70;99.90;;;;;;4860253;29;20042;-56
2022/10/13 02:14:41;;;;;;;79.18;62.33;;;16.80;99.90;;;;;;4861545;29;20045;-53
2022/10/13 02:17:07;;;;;;;89.38;65.22;;;16.70;99.90;;;;;;4841631;29;20041;-57
2022/10/13 02:19:36;;;;;;;81.45;63.83;;;16.40;99.90;;;;;;4879815;29;20041;-53
2022/10/13 02:22:03;;;;;;;88.65;66.22;;;16.20;99.90;;;;;;4879198;29;20029;-54
2022/10/13 02:24:29;;;;;;;89.35;63.67;;;16.10;99.90;;;;;;4879345;29;20045;-52
2022/10/13 02:26:56;;;;;;;93.22;65.95;;;16.00;99.90;;;;;;4916618;29;20055;-55
2022/10/13 02:29:22;;;;;;;96.32;69.47;;;15.90;99.90;;;;;;4917146;29;20044;-52
2022/10/13 02:31:48;;;;;;;94.15;67.07;;;15.80;99.90;;;;;;4916520;29;20088;-54
2022/10/13 02:34:15;;;;;;;87.82;66.13;;;15.90;99.90;;;;;;4916827;29;20032;-54
2022/10/13 02:36:40;;;;;;;86.75;64.55;;;16.00;99.90;;;;;;4916635;29;20036;-56
2022/10/13 02:39:08;;;;;;;83.50;61.88;;;16.10;99.90;;;;;;4917114;29;20486;-54
2022/10/13 02:41:33;;;;;;;87.00;62.05;;;16.20;99.90;;;;;;4916508;29;20050;-52
2022/10/13 02:43:59;;;;;;;80.68;59.65;;;16.20;99.90;;;;;;4987089;28;20038;-52
2022/10/13 02:46:25;;;;;;;79.20;59.42;;;16.20;99.90;;;;;;5013695;28;20107;-54
2022/10/13 02:48:51;;;;;;;83.18;57.10;;;16.10;99.90;;;;;;5018260;28;20092;-57
2022/10/13 02:51:17;;;;;;;81.82;58.95;;;16.10;99.90;;;;;;5018075;28;20029;-50
2022/10/13 02:53:43;;;;;;;77.55;58.38;;;16.10;99.90;;;;;;5024513;28;20045;-55
2022/10/13 02:56:08;;;;;;;74.22;56.97;;;16.10;99.90;;;;;;5025778;28;20091;-52
2022/10/13 02:58:35;;;;;;;78.32;55.03;;;;;;;;;;5018488;28;20022;-53
2022/10/13 03:01:08;;;;;;;82.13;60.70;;;16.20;99.90;;;;;;5019674;28;20033;-52
2022/10/13 03:03:35;;;;;;;86.90;54.67;;;16.00;99.90;;;;;;5020975;28;20037;-54
2022/10/13 03:06:01;;;;;;;74.70;56.35;;;16.00;99.90;;;;;;5015665;28;20029;-54
2022/10/13 03:08:27;;;;;;;76.40;54.72;;;16.00;99.90;;;;;;5009464;28;20441;-55
2022/10/13 03:10:53;;;;;;;75.78;56.45;;;16.00;99.90;;;;;;5016552;28;20536;-54
2022/10/13 03:13:19;;;;;;;78.22;57.45;;;16.00;99.90;;;;;;5033564;28;20057;-53
2022/10/13 03:15:46;;;;;;;80.93;56.45;;;16.00;99.90;;;;;;5022315;28;20030;-53
2022/10/13 03:18:12;;;;;;;81.45;57.28;;;15.90;99.90;;;;;;5017311;28;20064;-54
2022/10/13 03:20:38;;;;;;;82.20;53.65;;;15.90;99.90;;;;;;5018485;28;20105;-53
2022/10/13 03:23:05;;;;;;;73.03;51.42;;;15.90;99.90;;;;;;5017408;28;20030;-55
2022/10/13 03:25:32;;;;;;;74.18;52.35;;;15.80;99.90;;;;;;5017102;28;20481;-50
2022/10/13 03:27:57;;;;;;;71.20;52.45;;;15.80;99.90;;;;;;5016793;28;20092;-52
2022/10/13 03:30:23;;;;;;;74.93;54.70;;;15.80;99.90;;;;;;5018716;28;20062;-54
2022/10/13 03:32:49;;;;;;;73.95;52.63;;;15.80;99.90;;;;;;5018064;28;20045;-54
2022/10/13 03:35:15;;;;;;;73.70;55.25;;;15.80;99.90;;;;;;5029052;28;20141;-56
2022/10/13 03:37:41;;;;;;;75.45;54.55;;;15.80;99.90;;;;;;5019863;28;20087;-53
2022/10/13 03:40:07;;;;;;;75.95;54.50;;;15.70;99.90;;;;;;5016729;28;20033;-53
2022/10/13 03:42:36;;;;;;;69.70;53.08;;;;;;;;;;4996437;28;20030;-56
2022/10/13 03:45:03;;;;;;;72.75;53.45;;;;;;;;;;5025624;28;20076;-52
2022/10/13 03:47:29;;;;;;;71.35;53.08;;;15.80;99.90;;;;;;5016856;28;20022;-54
2022/10/13 03:49:55;;;;;;;84.63;55.45;;;15.70;99.90;;;;;;5030459;28;20081;-53
2022/10/13 03:52:21;;;;;;;69.05;51.47;;;15.70;99.90;;;;;;5016775;28;20061;-55
2022/10/13 03:54:47;;;;;;;83.00;56.45;;;15.70;99.90;;;;;;5011029;28;20409;-56
2022/10/13 03:57:12;;;;;;;87.05;54.92;;;15.70;99.90;;;;;;5015456;28;20037;-54
2022/10/13 03:59:39;;;;;;;89.65;53.28;;;15.70;99.90;;;;;;5014234;28;20121;-53
2022/10/13 04:02:06;;;;;;;90.13;55.25;;;15.70;99.90;;;;;;5039284;28;20403;-53
2022/10/13 04:04:32;;;;;;;106.47;55.83;;;15.70;99.90;;;;;;5019177;28;20037;-55
2022/10/13 04:06:58;;;;;;;134.23;57.13;;;15.70;99.90;;;;;;5016123;28;20493;-53
2022/10/13 04:09:23;;;;;;;119.68;59.05;;;15.60;99.90;;;;;;5018799;28;20038;-54
2022/10/13 04:11:50;;;;;;;108.50;55.65;;;15.50;99.90;;;;;;5022317;28;20204;-54
2022/10/13 04:14:16;;;;;;;130.55;54.40;;;15.50;99.90;;;;;;5021947;28;20521;-56
2022/10/13 04:16:42;;;;;;;222.68;60.97;;;15.40;99.90;;;;;;5013565;28;20034;-51
2022/10/13 04:19:11;;;;;;;275.05;63.35;;;;;;;;;;5022401;28;20022;-54
2022/10/13 04:21:37;;;;;;;240.55;60.17;;;;;;;;;;5016129;28;20036;-53
2022/10/13 04:24:03;;;;;;;335.70;65.38;;;;;;;;;;5022519;28;20076;-53
2022/10/13 04:26:31;;;;;;;386.73;63.55;;;;;;;;;;5016744;28;20535;-52
2022/10/13 04:28:57;;;;;;;318.00;60.42;;;;;;;;;;5010689;28;20050;-52
2022/10/13 04:31:23;;;;;;;251.50;59.90;;;15.30;99.90;;;;;;5022158;28;20030;-53
2022/10/13 04:33:49;;;;;;;236.02;56.53;;;15.40;99.90;;;;;;5018931;28;20104;-50
2022/10/13 04:36:16;;;;;;;322.38;60.85;;;15.40;99.90;;;;;;5016346;28;20030;-53
2022/10/13 04:38:42;;;;;;;382.75;63.47;;;15.40;99.90;;;;;;5014244;28;20030;-53
2022/10/13 04:41:10;;;;;;;282.27;59.50;;;15.40;99.90;;;;;;5018747;28;20585;-54
2022/10/13 04:43:35;;;;;;;327.88;60.10;;;15.40;99.90;;;;;;5033073;28;20049;-51
2022/10/13 04:46:09;;;;;;;227.02;60.22;;;15.50;99.90;;;;;;5015121;28;20022;-54
2022/10/13 04:48:34;;;;;;;231.27;58.67;;;15.50;99.90;;;;;;5019702;28;20541;-51
2022/10/13 04:51:01;;;;;;;199.40;58.10;;;15.50;99.90;;;;;;5008453;28;20121;-52
2022/10/13 04:53:28;;;;;;;121.53;56.38;;;15.50;99.90;;;;;;5013277;28;20493;-50
2022/10/13 04:56:07;;;;;;;96.10;57.80;;;15.50;99.90;;;;;;5014278;28;20034;-57
2022/10/13 04:58:33;;;;;;;75.80;54.13;;;15.50;99.90;;;;;;5015842;28;20112;-54
2022/10/13 05:00:58;;;;;;;73.00;54.15;;;15.50;99.90;;;;;;5012270;28;20125;-57
2022/10/13 05:03:24;;;;;;;82.57;58.00;;;15.40;99.90;;;;;;5015700;28;20359;-53
2022/10/13 05:05:51;;;;;;;87.25;57.63;;;15.50;99.90;;;;;;5016563;28;20029;-57
2022/10/13 05:08:17;;;;;;;75.50;55.67;;;15.50;99.90;;;;;;5014612;28;20128;-57
2022/10/13 05:11:01;;;;;;;69.32;54.63;;;15.50;99.90;;;;;;5014409;28;20109;-53
2022/10/13 05:13:28;;;;;;;76.85;55.88;;;15.50;99.90;;;;;;5009305;28;20065;-55
2022/10/13 05:15:55;;;;;;;75.70;55.72;;;15.50;99.90;;;;;;5016244;28;20038;-56
2022/10/13 05:18:21;;;;;;;70.47;54.08;;;15.50;99.90;;;;;;5017259;28;20053;-51
2022/10/13 05:20:46;;;;;;;67.20;52.58;;;15.60;99.90;;;;;;5013484;28;20088;-53
2022/10/13 05:23:13;;;;;;;73.22;54.65;;;15.60;99.90;;;;;;5014848;28;20117;-55
2022/10/13 05:25:39;;;;;;;78.40;57.17;;;15.70;99.90;;;;;;5014719;28;20397;-50
2022/10/13 05:28:06;;;;;;;77.38;58.75;;;15.80;99.90;;;;;;4980512;28;20046;-51
2022/10/13 05:30:32;;;;;;;73.72;57.15;;;15.80;99.90;;;;;;5010439;28;20486;-48
2022/10/13 05:32:58;;;;;;;77.57;55.55;;;15.80;99.90;;;;;;4987470;28;20095;-52
2022/10/13 05:35:25;;;;;;;77.95;57.10;;;15.80;99.90;;;;;;5026945;28;20050;-49
2022/10/13 05:37:50;;;;;;;74.60;55.17;;;15.80;99.90;;;;;;5013831;28;20121;-50
2022/10/13 05:40:16;;;;;;;68.43;51.47;;;15.80;99.90;;;;;;4989640;28;20128;-51
2022/10/13 05:42:42;;;;;;;75.90;56.65;;;15.80;99.90;;;;;;5016694;28;20044;-51
2022/10/13 05:45:11;;;;;;;74.72;54.90;;;15.80;99.90;;;;;;5017238;28;20054;-52
2022/10/13 05:47:37;;;;;;;74.47;53.40;;;15.80;99.90;;;;;;5013741;28;20049;-50
2022/10/13 05:50:03;;;;;;;70.20;53.88;;;15.80;99.90;;;;;;5018518;28;20445;-48
2022/10/13 05:52:32;;;;;;;75.72;56.83;;;15.90;99.90;;;;;;5022348;28;20462;-50
2022/10/13 05:55:01;;;;;;;76.18;54.10;;;16.00;99.90;;;;;;5007996;28;20379;-49
2022/10/13 05:57:37;;;;;;;68.10;52.60;;;16.10;99.90;;;;;;5016735;28;20401;-50
2022/10/13 06:00:08;;;;;;;67.55;52.15;;;16.10;99.90;;;;;;5018467;28;20029;-53
2022/10/13 06:03:16;;;;;;;77.65;54.00;;;16.20;99.90;;;;;;5004801;28;20126;-48
2022/10/13 06:05:46;;;;;;;67.50;53.25;;;16.20;99.90;;;;;;5017497;28;20034;-52
2022/10/13 06:08:13;;;;;;;74.22;53.33;;;16.10;99.90;;;;;;5015763;28;20046;-51
2022/10/13 06:10:40;;;;;;;86.38;56.75;;;16.30;99.90;;;;;;5015882;28;20473;-51
2022/10/13 06:13:05;;;;;;;72.07;54.35;;;16.30;99.90;;;;;;5016387;28;20084;-52
2022/10/13 06:15:31;;;;;;;76.43;54.45;;;16.40;99.90;;;;;;5019927;28;20050;-51
2022/10/13 06:17:57;;;;;;;73.63;54.60;;;16.40;99.90;;;;;;5027822;28;20080;-50
2022/10/13 06:20:23;;;;;;;80.57;56.38;;;16.30;99.90;;;;;;5024096;28;20117;-49
2022/10/13 06:22:49;;;;;;;76.60;56.47;;;16.30;99.90;;;;;;5012673;28;20108;-53
2022/10/13 06:25:15;;;;;;;85.57;59.25;;;16.40;99.90;;;;;;5027569;28;20030;-49
2022/10/13 06:27:42;;;;;;;82.45;59.92;;;16.50;99.90;;;;;;5020417;28;20101;-52
2022/10/13 06:30:08;;;;;;;84.90;56.50;;;16.50;99.90;;;;;;5020579;28;20068;-54
2022/10/13 06:32:34;;;;;;;94.30;60.55;;;16.60;99.90;;;;;;5027434;28;20433;-53
2022/10/13 06:34:59;;;;;;;82.63;57.78;;;16.70;99.90;;;;;;5032307;28;20120;-52
2022/10/13 06:37:25;;;;;;;91.15;58.53;;;16.60;99.90;;;;;;5030681;28;20112;-50
2022/10/13 06:39:51;;;;;;;95.57;60.55;;;16.60;99.90;;;;;;5020575;28;20030;-52
2022/10/13 06:42:17;;;;;;;90.75;57.25;;;16.80;99.90;;;;;;4985478;28;20126;-54
2022/10/13 06:44:43;;;;;;;99.28;61.67;;;16.70;99.90;;;;;;5015947;28;20381;-51
2022/10/13 06:47:08;;;;;;;99.53;61.40;;;16.80;99.90;;;;;;5017546;28;20120;-55
2022/10/13 06:49:34;;;;;;;101.05;60.38;;;16.90;99.90;;;;;;5019106;28;20386;-54
2022/10/13 06:52:00;;;;;;;95.22;58.65;;;17.00;99.90;;;;;;5030040;28;20444;-55
2022/10/13 06:54:25;;;;;;;99.40;60.40;;;17.00;99.90;;;;;;5015938;28;20038;-55
2022/10/13 06:56:51;;;;;;;87.65;57.28;;;17.00;99.90;;;;;;5017096;28;20025;-51
2022/10/13 06:59:17;;;;;;;96.72;59.47;;;16.90;99.90;;;;;;5018722;28;20026;-56
2022/10/13 07:01:43;;;;;;;93.25;58.65;;;17.00;99.90;;;;;;5016794;28;20477;-51
2022/10/13 07:04:09;;;;;;;90.47;58.08;;;17.00;99.90;;;;;;5031590;28;20045;-51
2022/10/13 07:06:34;;;;;;;90.78;58.90;;;17.20;99.90;;;;;;5016907;28;20022;-52
2022/10/13 07:09:05;;;;;;;89.30;60.35;;;17.20;99.90;;;;;;5006779;28;20045;-51
2022/10/13 07:11:31;;;;;;;98.97;59.97;;;17.20;99.90;;;;;;5020691;28;20060;-52
2022/10/13 07:13:57;;;;;;;95.90;59.33;;;17.20;99.90;;;;;;5018802;28;20392;-48
2022/10/13 07:16:22;;;;;;;95.00;61.13;;;17.30;99.90;;;;;;5033346;28;20034;-49
2022/10/13 07:18:48;;;;;;;94.22;57.65;;;17.30;99.90;;;;;;5018960;28;20050;-57
2022/10/13 07:21:14;;;;;;;98.65;59.45;;;17.30;99.90;;;;;;5015492;28;20030;-58
2022/10/13 07:23:40;;;;;;;94.88;58.33;;;17.50;99.90;;;;;;5019734;28;20033;-60
2022/10/13 07:26:08;;;;;;;96.18;59.47;;;17.20;99.90;;;;;;5020704;28;20034;-56
2022/10/13 07:28:34;;;;;;;88.38;51.78;;;;;;;;;;5018254;28;20045;-61
2022/10/13 07:31:05;;;;;;;86.28;54.97;;;17.40;99.90;;;;;;5014724;28;20485;-53
2022/10/13 07:33:31;;;;;;;78.38;52.50;;;17.50;99.90;;;;;;5014986;28;20034;-53
2022/10/13 07:35:58;;;;;;;83.60;51.35;;;17.70;99.90;;;;;;5018135;28;20504;-56
2022/10/13 07:38:24;;;;;;;85.15;53.92;;;17.70;99.90;;;;;;5016331;28;20393;-56
2022/10/13 07:40:50;;;;;;;85.68;56.15;;;17.70;99.90;;;;;;5023903;28;20037;-54
2022/10/13 07:43:15;;;;;;;75.80;47.97;;;17.80;99.90;;;;;;5003282;28;20046;-58
2022/10/13 07:45:41;;;;;;;73.53;47.10;;;17.80;99.90;;;;;;5018158;28;20493;-55
2022/10/13 07:48:07;;;;;;;71.93;48.47;;;17.60;99.90;;;;;;5030088;28;20056;-54
2022/10/13 07:50:33;;;;;;;73.40;48.08;;;17.60;99.90;;;;;;5027182;28;20038;-51
2022/10/13 07:52:58;;;;;;;71.63;46.67;;;17.70;99.90;;;;;;5018039;28;20477;-56
2022/10/13 07:55:24;;;;;;;73.25;48.75;;;17.90;99.90;;;;;;5017827;28;20088;-60
2022/10/13 07:57:50;;;;;;;77.93;49.10;;;18.10;99.90;;;;;;5013460;28;20487;-52
2022/10/13 08:00:16;;;;;;;80.90;54.17;;;18.10;99.90;;;;;;5015757;28;20121;-55
2022/10/13 08:02:41;;;;;;;86.13;53.03;;;18.10;99.90;;;;;;5030055;28;20124;-52
2022/10/13 08:05:07;;;;;;;77.85;49.67;;;18.10;99.90;;;;;;5027291;28;20034;-53
2022/10/13 08:07:33;;;;;;;70.55;47.30;;;18.10;99.90;;;;;;5008752;28;20042;-57
2022/10/13 08:09:59;;;;;;;74.30;49.78;;;18.00;99.90;;;;;;5010861;28;20073;-50
2022/10/13 08:12:25;;;;;;;75.30;48.42;;;18.20;99.90;;;;;;5018419;28;20029;-50
2022/10/13 08:14:50;;;;;;;77.88;51.63;;;18.20;99.90;;;;;;5015965;28;20092;-51
2022/10/13 08:17:16;;;;;;;75.10;50.47;;;18.40;99.90;;;;;;5014236;28;20046;-50
2022/10/13 08:19:42;;;;;;;79.07;50.72;;;;;;;;;;5020003;28;20037;-50
2022/10/13 08:22:09;;;;;;;79.95;49.45;;;;;;;;;;5018755;28;20033;-50
2022/10/13 08:24:35;;;;;;;82.45;51.53;;;18.80;99.90;;;;;;5014958;28;20488;-50
2022/10/13 08:27:01;;;;;;;77.75;51.15;;;18.80;99.90;;;;;;5015832;28;20030;-50
2022/10/13 08:29:26;;;;;;;71.85;48.95;;;18.90;99.90;;;;;;5015757;28;20049;-51
2022/10/13 08:31:53;;;;;;;68.47;48.00;;;19.00;99.90;;;;;;5014361;28;20026;-50
2022/10/13 08:34:19;;;;;;;70.38;47.03;;;19.00;99.90;;;;;;5015937;28;20496;-50
2022/10/13 08:36:46;;;;;;;67.75;45.35;;;18.90;99.90;;;;;;5014761;28;20041;-50
2022/10/13 08:39:12;;;;;;;63.63;44.65;;;;;;;;;;5016227;28;20038;-50
2022/10/13 08:41:42;;;;;;;59.53;43.20;;;19.00;99.90;;;;;;5013368;28;20029;-50
2022/10/13 08:44:19;;;;;;;54.42;41.72;;;19.20;99.90;;;;;;5022093;28;20114;-50
2022/10/13 08:47:14;;;;;;;61.75;46.08;;;19.20;99.90;;;;;;5015304;28;20033;-50
2022/10/13 08:49:41;;;;;;;56.38;42.72;;;19.30;99.90;;;;;;5009757;28;20092;-50
2022/10/13 08:52:18;;;;;;;63.63;43.83;;;19.40;99.90;;;;;;5015065;28;20041;-50
2022/10/13 08:54:43;;;;;;;58.47;43.42;;;19.40;99.90;;;;;;5013195;28;20038;-50
2022/10/13 08:57:10;;;;;;;58.58;42.97;;;;;;;;;;5014467;28;20424;-50
2022/10/13 08:59:36;;;;;;;56.78;42.60;;;19.50;99.90;;;;;;5010046;28;20037;-50
2022/10/13 09:02:13;;;;;;;62.92;43.33;;;19.40;99.90;;;;;;5007775;28;20038;-50
2022/10/13 09:04:41;;;;;;;55.95;42.88;;;19.30;99.90;;;;;;5014716;28;20026;-50
2022/10/13 09:07:33;;;;;;;59.15;44.33;;;19.60;99.90;;;;;;5016620;28;20507;-50
2022/10/13 09:09:59;;;;;;;59.65;46.55;;;;;;;;;;5016759;28;20167;-50
2022/10/13 09:12:26;;;;;;;56.03;45.33;;;19.90;99.90;;;;;;5014615;28;20057;-53
2022/10/13 09:15:07;;;;;;;58.53;45.03;;;20.30;99.90;;;;;;5014302;28;20426;-50
2022/10/13 09:17:33;;;;;;;61.42;46.45;;;;;;;;;;5012000;28;20046;-50
2022/10/13 09:20:13;;;;;;;68.68;48.08;;;21.00;99.90;;;;;;5013729;28;20061;-50
2022/10/13 09:22:39;;;;;;;59.53;46.25;;;20.90;99.90;;;;;;5016580;28;20038;-50
2022/10/13 09:25:14;;;;;;;63.90;47.35;;;21.00;99.90;;;;;;5014379;28;20026;-50
2022/10/13 09:27:52;;;;;;;57.50;45.17;;;21.80;99.90;;;;;;5015361;28;20041;-50
2022/10/13 09:30:33;;;;;;;53.50;43.40;;;;;;;;;;5017879;28;20490;-50
2022/10/13 09:33:06;;;;;;;52.67;43.58;;;;;;;;;;5014304;28;20037;-50
2022/10/13 09:35:33;;;;;;;54.13;44.47;;;23.90;99.90;;;;;;5011362;28;20080;-50
2022/10/13 09:38:03;;;;;;;56.22;47.55;;;;;;;;;;5013525;28;20045;-50
2022/10/13 09:40:31;;;;;;;57.90;48.75;;;24.70;99.90;;;;;;5009428;28;20091;-52
2022/10/13 09:42:59;;;;;;;58.72;46.97;;;24.90;99.90;;;;;;5012063;28;20516;-50
2022/10/13 09:45:26;;;;;;;59.78;46.88;;;24.50;99.90;;;;;;5023708;28;20116;-50
2022/10/13 09:48:03;;;;;;;59.83;46.67;;;24.50;99.90;;;;;;5015326;28;20041;-50
2022/10/13 09:50:31;;;;;;;60.70;49.55;;;24.60;99.90;;;;;;5018691;28;20042;-50
2022/10/13 09:53:31;;;;;;;54.75;47.63;;;24.90;99.90;;;;;;5006853;28;20042;-49
2022/10/13 09:56:22;;;;;;;57.28;45.42;;;25.30;99.90;;;;;;5013055;28;20037;-50
2022/10/13 09:58:50;;;;;;;55.70;45.92;;;25.10;99.90;;;;;;4999994;28;20430;-50
2022/10/13 10:01:24;;;;;;;58.65;46.83;;;24.30;99.90;;;;;;5017054;28;20137;-50
2022/10/13 10:03:50;;;;;;;53.90;44.75;;;24.50;99.90;;;;;;4991466;28;20034;-50
2022/10/13 10:06:17;;;;;;;57.30;44.20;;;24.80;99.90;;;;;;5011572;28;20026;-54
2022/10/13 10:08:51;;;;;;;52.85;42.20;;;25.10;99.90;;;;;;5013089;28;20029;-58
2022/10/13 10:11:26;;;;;;;53.08;43.97;;;25.90;99.90;;;;;;5017912;28;20104;-49
2022/10/13 10:13:52;;;;;;;58.70;43.63;;;26.00;99.90;;;;;;5010637;28;20064;-50
2022/10/13 10:16:34;;;;;;;53.80;44.47;;;26.10;99.90;;;;;;5004114;28;20085;-50
2022/10/13 10:19:00;;;;;;;55.47;44.75;;;;;;;;;;5013956;28;20378;-55
2022/10/13 10:21:26;;;;;;;56.25;44.38;;;;;;;;;;5013202;28;20072;-49
2022/10/13 10:24:08;;;;;;;54.20;43.15;;;27.50;99.90;;;;;;5007503;28;20394;-50
2022/10/13 10:27:13;;;;;;;53.63;45.17;;;27.30;99.90;;;;;;5009088;28;20485;-48
2022/10/13 10:29:45;;;;;;;53.95;44.28;;;26.50;99.90;;;;;;5018394;28;20446;-49
2022/10/13 10:32:23;;;;;;;52.08;44.03;;;26.30;99.90;;;;;;5015204;28;20121;-50
2022/10/13 10:35:02;;;;;;;55.47;43.15;;;25.90;99.90;;;;;;5019101;28;20026;-54
2022/10/13 10:37:43;;;;;;;55.38;44.90;;;25.90;99.90;;;;;;5013899;28;20076;-47
2022/10/13 10:40:18;;;;;;;54.78;44.13;;;25.70;99.90;;;;;;5015111;28;20083;-51
2022/10/13 10:42:53;;;;;;;56.17;44.58;;;26.40;99.90;;;;;;5021146;28;20084;-52
2022/10/13 10:45:25;;;;;;;54.58;44.88;;;26.70;99.90;;;;;;5013882;28;20113;-52
2022/10/13 10:47:59;;;;;;;54.28;43.92;;;26.80;99.90;;;;;;5013177;28;20355;-50
2022/10/13 10:50:25;;;;;;;54.38;42.55;;;27.30;99.90;;;;;;5016069;28;20025;-50
2022/10/13 10:53:13;;;;;;;57.83;45.28;;;27.20;99.90;;;;;;5015171;28;20033;-49
2022/10/13 10:55:46;;;;;;;54.80;44.53;;;;;;;;;;5014719;28;20030;-51
2022/10/13 10:58:20;;;;;;;50.95;43.65;;;;;;;;;;5015172;28;20034;-52
2022/10/13 11:01:14;;;;;;;49.75;44.40;;;28.40;99.90;;;;;;5010368;28;20392;-52
2022/10/13 11:03:50;;;;;;;50.60;42.95;;;28.00;99.90;;;;;;4992597;28;20074;-52
2022/10/13 11:06:15;;;;;;;44.30;38.97;;;28.00;99.90;;;;;;5010841;28;20042;-52
2022/10/13 11:08:45;;;;;;;51.90;39.63;;;27.60;99.90;;;;;;5008113;28;20050;-53
2022/10/13 11:11:25;;;;;;;51.22;42.33;;;28.20;99.90;;;;;;5009615;28;20030;-53
2022/10/13 11:13:54;;;;;;;52.70;43.92;;;27.60;99.90;;;;;;4976944;28;20374;-52
2022/10/13 11:17:01;;;;;;;55.72;42.60;;;28.00;99.90;;;;;;5009924;28;20034;-54
2022/10/13 11:19:36;;;;;;;48.53;38.92;;;27.70;99.90;;;;;;4990838;28;20050;-56
2022/10/13 11:22:01;;;;;;;53.63;40.95;;;27.40;99.90;;;;;;4991272;28;20038;-51
2022/10/13 11:24:33;;;;;;;47.70;40.78;;;27.90;99.90;;;;;;4973739;28;20096;-54
2022/10/13 11:27:23;;;;;;;49.40;41.58;;;28.10;99.90;;;;;;4987921;28;20047;-56
2022/10/13 11:29:55;;;;;;;50.70;40.70;;;28.30;99.90;;;;;;4911153;29;20083;-50
2022/10/13 11:32:29;;;;;;;54.70;44.28;;;27.90;99.90;;;;;;4909849;29;20119;-50
2022/10/13 11:35:04;;;;;;;54.65;41.83;;;27.60;99.90;;;;;;4913489;29;20493;-49
2022/10/13 11:37:52;;;;;;;50.00;40.22;;;28.00;99.90;;;;;;4913544;29;20070;-53
2022/10/13 11:40:31;;;;;;;49.33;39.63;;;28.10;99.90;;;;;;4912589;29;20056;-50
2022/10/13 11:43:16;;;;;;;46.58;38.80;;;27.80;99.90;;;;;;4913675;29;20056;-50
2022/10/13 11:46:01;;;;;;;50.55;40.58;;;27.50;99.90;;;;;;4894005;29;20123;-51
2022/10/13 11:48:49;;;;;;;51.20;39.70;;;27.40;99.90;;;;;;4929588;29;20048;-51
2022/10/13 11:51:28;;;;;;;46.42;40.22;;;27.60;99.90;;;;;;4912888;29;20047;-47
2022/10/13 11:54:19;;;;;;;51.03;40.42;;;27.70;99.90;;;;;;4911818;29;20127;-47
2022/10/13 11:56:53;;;;;;;48.40;37.20;;;27.70;99.90;;;;;;4941490;28;20034;-49
2022/10/13 11:59:31;;;;;;;48.33;36.45;;;27.60;99.90;;;;;;4941436;28;20519;-52
2022/10/13 12:02:09;;;;;;;47.28;40.83;;;27.40;99.90;;;;;;4953064;28;20035;-49
2022/10/13 12:04:35;;;;;;;44.65;38.60;;;27.10;99.90;;;;;;4938029;29;20495;-50
2022/10/13 12:07:08;;;;;;;47.60;38.85;;;27.20;99.90;;;;;;4986955;28;20552;-52
2022/10/13 12:09:39;;;;;;;47.38;39.92;;;27.10;99.90;;;;;;5012625;28;20481;-47
2022/10/13 12:12:14;;;;;;;46.45;37.55;;;27.20;99.90;;;;;;5013870;28;20477;-50
2022/10/13 12:14:44;;;;;;;38.83;31.38;;;27.10;99.90;;;;;;5014897;28;20033;-48
2022/10/13 12:17:37;;;;;;;38.95;32.80;;;27.10;99.90;;;;;;5012712;28;20120;-47
2022/10/13 12:20:26;;;;;;;41.13;31.77;;;26.40;99.90;;;;;;4977139;28;20523;-49
2022/10/13 12:22:53;;;;;;;39.40;30.38;;;26.70;99.90;;;;;;5006882;28;20486;-51
2022/10/13 12:25:22;;;;;;;41.30;32.20;;;26.80;99.90;;;;;;5014541;28;20124;-49
2022/10/13 12:27:53;;;;;;;40.33;32.42;;;26.50;99.90;;;;;;5017643;28;20057;-53
2022/10/13 12:30:25;;;;;;;36.50;30.13;;;26.40;99.90;;;;;;5013433;28;20034;-50
2022/10/13 12:32:53;;;;;;;35.28;31.17;;;26.50;99.90;;;;;;5013140;28;20026;-52
2022/10/13 12:35:22;;;;;;;38.10;29.88;;;;;;;;;;5016661;28;20033;-49
2022/10/13 12:37:49;;;;;;;41.45;30.70;;;26.20;99.90;;;;;;5015119;28;20034;-49
2022/10/13 12:40:16;;;;;;;39.00;32.13;;;26.10;99.90;;;;;;5015849;28;20032;-49
2022/10/13 12:42:43;;;;;;;44.10;33.58;;;26.10;99.90;;;;;;5013495;28;20497;-50
2022/10/13 12:45:20;;;;;;;42.65;33.47;;;25.60;99.90;;;;;;5018525;28;20079;-50
2022/10/13 12:47:51;;;;;;;40.20;32.33;;;25.50;99.90;;;;;;5018822;28;20025;-50
2022/10/13 12:50:26;;;;;;;40.15;31.27;;;25.80;99.90;;;;;;5011618;28;20050;-49